Airport View

Enter AWOS ICAO identifier for current METAR.

ex. KFNL

KMWL 051253Z AUTO 02003KT 10SM CLR 24/20 A3000 RMK AO2 SLP144 T02440200

5 Aug 2020 13:22

Frequency: 135.075

Phone: 940-325-2457

Other Area AWOS: KGDJ - KXBP - KNFW - KRPH

TAF KNFW 0507/0607 VRB06KT 9999 FEW300 QNH2990INS FM051300 VRB06KT 9999 VCTS SCT050CB BKN200 QNH2991NS TEMPO 0513/0515 VRB15G25KT 6000 -TSRA SCT025 BKN050CB BKN200 BECMG 0515/0517 09010KT 9999 SCT050 BKN200 QNH2994INS AUTOMATED SENSOR METWATCH 0507 TIL 0511 T23/0512Z T31/0521Z FN00210